createdAt,value
2022-11-17T00:00:35.209Z,16.47
2022-11-17T00:03:02.355Z,15.97
2022-11-17T00:05:29.588Z,15.87
2022-11-17T00:07:56.787Z,16.60
2022-11-17T00:10:23.931Z,13.70
2022-11-17T00:13:09.425Z,11.07
2022-11-17T00:15:36.624Z,11.40
2022-11-17T00:18:22.186Z,16.97
2022-11-17T00:21:08.080Z,15.33
2022-11-17T00:23:47.568Z,13.10
2022-11-17T00:26:26.729Z,16.23
2022-11-17T00:28:55.595Z,11.97
2022-11-17T00:31:42.918Z,10.87
2022-11-17T00:34:27.933Z,10.10
2022-11-17T00:36:55.521Z,10.93
2022-11-17T00:39:23.935Z,11.07
2022-11-17T00:41:51.189Z,11.17
2022-11-17T00:44:18.345Z,13.70
2022-11-17T00:46:45.800Z,11.20
2022-11-17T00:49:14.696Z,11.93
2022-11-17T00:51:42.244Z,12.90
2022-11-17T00:54:12.070Z,13.87
2022-11-17T00:56:40.063Z,14.07
2022-11-17T00:59:07.253Z,11.33
2022-11-17T01:01:34.470Z,10.53
2022-11-17T01:04:05.367Z,7.33
2022-11-17T01:06:38.702Z,8.77
2022-11-17T01:09:11.342Z,7.73
2022-11-17T01:11:38.560Z,6.70
2022-11-17T01:14:05.733Z,6.20
2022-11-17T01:16:33.590Z,4.83
2022-11-17T01:19:02.334Z,4.40
2022-11-17T01:21:31.359Z,5.50
2022-11-17T01:24:00.250Z,4.70
2022-11-17T01:26:30.733Z,3.67
2022-11-17T01:28:59.354Z,3.27
2022-11-17T01:31:29.868Z,2.83
2022-11-17T01:33:57.424Z,2.10
2022-11-17T01:36:51.735Z,2.40
2022-11-17T01:39:19.169Z,2.00
2022-11-17T01:41:46.508Z,2.43
2022-11-17T01:45:04.840Z,2.47
2022-11-17T01:47:44.636Z,2.63
2022-11-17T01:50:40.180Z,2.30
2022-11-17T01:53:15.447Z,1.90
2022-11-17T01:55:48.489Z,2.33
2022-11-17T01:58:23.301Z,2.57
2022-11-17T02:00:50.969Z,1.70
2022-11-17T02:03:18.264Z,1.87
2022-11-17T02:05:55.239Z,1.93
2022-11-17T02:08:26.429Z,1.67
2022-11-17T02:10:54.142Z,3.07
2022-11-17T02:13:22.538Z,3.13
2022-11-17T02:15:49.700Z,2.90
2022-11-17T02:18:17.916Z,2.93
2022-11-17T02:21:40.711Z,2.63
2022-11-17T02:24:47.575Z,2.67
2022-11-17T02:27:51.894Z,2.30
2022-11-17T02:30:22.053Z,2.43
2022-11-17T02:33:44.249Z,2.00
2022-11-17T02:36:19.362Z,2.23
2022-11-17T02:39:15.077Z,2.20
2022-11-17T02:42:09.208Z,2.83
2022-11-17T02:44:55.591Z,2.40
2022-11-17T02:47:32.777Z,2.57
2022-11-17T02:50:07.228Z,3.10
2022-11-17T02:52:34.960Z,2.30
2022-11-17T02:55:08.309Z,2.30
2022-11-17T02:57:37.747Z,2.37
2022-11-17T03:00:11.868Z,2.37
2022-11-17T03:03:31.251Z,2.37
2022-11-17T03:06:33.230Z,2.67
2022-11-17T03:09:18.509Z,3.40
2022-11-17T03:11:53.776Z,2.97
2022-11-17T03:14:29.910Z,2.30
2022-11-17T03:17:35.318Z,2.17
2022-11-17T03:20:24.892Z,2.30
2022-11-17T03:23:01.912Z,2.80
2022-11-17T03:25:33.583Z,2.93
2022-11-17T03:28:06.417Z,2.50
2022-11-17T03:30:37.740Z,2.60
2022-11-17T03:33:11.265Z,2.10
2022-11-17T03:35:46.306Z,2.10
2022-11-17T03:38:18.701Z,2.20
2022-11-17T03:40:47.903Z,2.00
2022-11-17T03:43:18.395Z,2.10
2022-11-17T03:45:52.103Z,2.07
2022-11-17T03:48:34.884Z,2.33
2022-11-17T03:51:09.316Z,1.70
2022-11-17T03:53:37.036Z,1.93
2022-11-17T03:56:58.748Z,1.60
2022-11-17T03:59:57.922Z,1.90
2022-11-17T04:02:26.885Z,1.80
2022-11-17T04:05:06.295Z,2.00
2022-11-17T04:07:35.210Z,1.77
2022-11-17T04:10:02.906Z,1.53
2022-11-17T04:12:48.864Z,1.70
2022-11-17T04:15:34.691Z,1.93
2022-11-17T04:18:02.865Z,1.50
2022-11-17T04:20:39.056Z,1.87
2022-11-17T04:23:08.171Z,1.60
2022-11-17T04:25:55.253Z,1.53
2022-11-17T04:28:39.225Z,1.77
2022-11-17T04:31:15.539Z,1.73
2022-11-17T04:33:50.962Z,1.57
2022-11-17T04:36:29.766Z,1.60
2022-11-17T04:38:59.057Z,1.60
2022-11-17T04:41:46.434Z,1.60
2022-11-17T04:44:16.704Z,1.83
2022-11-17T04:46:46.140Z,1.37
2022-11-17T04:49:14.647Z,1.50
2022-11-17T04:51:42.715Z,1.40
2022-11-17T04:54:12.703Z,1.80
2022-11-17T04:56:40.576Z,1.40
2022-11-17T04:59:08.116Z,1.30
2022-11-17T05:01:35.536Z,1.43
2022-11-17T05:04:08.822Z,1.77
2022-11-17T05:06:44.446Z,1.57
2022-11-17T05:09:16.612Z,1.60
2022-11-17T05:12:02.703Z,1.50
2022-11-17T05:14:30.743Z,1.73
2022-11-17T05:17:09.867Z,1.33
2022-11-17T05:19:46.024Z,1.40
2022-11-17T05:22:35.574Z,1.90
2022-11-17T05:25:03.462Z,1.47
2022-11-17T05:27:30.628Z,1.53
2022-11-17T05:29:57.799Z,1.43
2022-11-17T05:32:25.216Z,1.13
2022-11-17T05:34:52.421Z,1.20
2022-11-17T05:37:19.713Z,1.50
2022-11-17T05:39:46.966Z,1.30
2022-11-17T05:42:14.101Z,1.20
2022-11-17T05:44:41.263Z,1.30
2022-11-17T05:47:08.465Z,1.80
2022-11-17T05:49:35.571Z,1.50
2022-11-17T05:52:02.743Z,1.53
2022-11-17T05:54:29.957Z,1.53
2022-11-17T05:57:10.722Z,1.87
2022-11-17T05:59:59.746Z,1.73
2022-11-17T06:02:37.081Z,2.03
2022-11-17T06:05:04.832Z,1.90
2022-11-17T06:07:32.521Z,1.60
2022-11-17T06:09:59.749Z,1.40
2022-11-17T06:12:26.985Z,1.70
2022-11-17T06:14:54.446Z,1.90
2022-11-17T06:17:26.746Z,1.63
2022-11-17T06:20:24.806Z,1.63
2022-11-17T06:22:52.271Z,1.57
2022-11-17T06:25:20.682Z,2.33
2022-11-17T06:27:49.562Z,1.20
2022-11-17T06:30:17.503Z,1.37
2022-11-17T06:32:45.766Z,1.57
2022-11-17T06:35:16.545Z,1.77
2022-11-17T06:37:44.115Z,2.10
2022-11-17T06:40:13.503Z,1.50
2022-11-17T06:42:59.351Z,1.87
2022-11-17T06:45:26.977Z,2.07
2022-11-17T06:47:54.851Z,1.43
2022-11-17T06:50:22.143Z,1.30
2022-11-17T06:52:49.325Z,1.50
2022-11-17T06:55:16.493Z,1.43
2022-11-17T06:57:46.523Z,1.30
2022-11-17T07:00:16.726Z,2.03
2022-11-17T07:02:43.843Z,2.43
2022-11-17T07:05:11.045Z,2.83
2022-11-17T07:07:38.199Z,3.10
2022-11-17T07:10:05.842Z,2.57
2022-11-17T07:12:33.697Z,2.47
2022-11-17T07:15:00.918Z,2.90
2022-11-17T07:17:29.166Z,2.50
2022-11-17T07:19:56.889Z,2.33
2022-11-17T07:22:24.232Z,2.93
2022-11-17T07:24:51.734Z,2.50
2022-11-17T07:27:18.908Z,2.00
2022-11-17T07:29:46.069Z,2.33
2022-11-17T07:32:14.058Z,2.27
2022-11-17T07:34:41.946Z,1.43
2022-11-17T07:37:09.286Z,1.50
2022-11-17T07:39:36.422Z,0.93
2022-11-17T07:42:03.690Z,1.30
2022-11-17T07:44:31.828Z,1.10
2022-11-17T07:46:59.026Z,1.20
2022-11-17T07:49:27.146Z,1.20
2022-11-17T07:51:54.716Z,1.30
2022-11-17T07:54:21.931Z,1.00
2022-11-17T07:56:49.148Z,1.10
2022-11-17T07:59:21.231Z,1.30
2022-11-17T08:01:48.757Z,1.03
2022-11-17T08:04:16.203Z,0.90
2022-11-17T08:06:43.364Z,1.00
2022-11-17T08:09:12.773Z,0.97
2022-11-17T08:11:44.258Z,0.90
2022-11-17T08:14:11.491Z,1.00
2022-11-17T08:16:38.675Z,0.97
2022-11-17T08:19:06.432Z,1.00
2022-11-17T08:21:36.236Z,1.03
2022-11-17T08:24:03.617Z,1.10
2022-11-17T08:26:30.856Z,0.90
2022-11-17T08:28:59.126Z,0.90
2022-11-17T08:31:26.370Z,1.10
2022-11-17T08:33:53.676Z,1.77
2022-11-17T08:36:20.869Z,1.10
2022-11-17T08:38:48.071Z,1.30
2022-11-17T08:41:15.321Z,1.20
2022-11-17T08:43:42.564Z,1.20
2022-11-17T08:46:13.253Z,0.97
2022-11-17T08:48:41.072Z,0.83
2022-11-17T08:51:09.222Z,1.10
2022-11-17T08:53:36.418Z,1.03
2022-11-17T08:56:11.150Z,1.07
2022-11-17T08:58:43.282Z,0.80
2022-11-17T09:01:11.528Z,1.17
2022-11-17T09:03:38.806Z,0.93
2022-11-17T09:06:06.321Z,1.00
2022-11-17T09:08:48.903Z,1.07
2022-11-17T09:11:16.928Z,1.07
2022-11-17T09:13:45.800Z,1.70
2022-11-17T09:16:13.942Z,1.10
2022-11-17T09:18:41.666Z,1.33
2022-11-17T09:21:11.643Z,1.30
2022-11-17T09:23:39.999Z,1.30
2022-11-17T09:26:12.565Z,1.23
2022-11-17T09:28:40.418Z,1.20
2022-11-17T09:31:09.891Z,1.50
2022-11-17T09:33:37.697Z,1.43
2022-11-17T09:36:07.397Z,1.73
2022-11-17T09:38:36.372Z,1.63
2022-11-17T09:41:22.834Z,1.30
2022-11-17T09:44:12.923Z,1.93
2022-11-17T09:47:11.979Z,1.67
2022-11-17T09:49:56.945Z,1.53
2022-11-17T09:52:59.875Z,1.33
2022-11-17T09:55:38.790Z,1.73
2022-11-17T09:58:34.686Z,1.87
2022-11-17T10:01:02.240Z,1.67
2022-11-17T10:03:40.392Z,1.20
2022-11-17T10:06:21.398Z,1.70
2022-11-17T10:09:30.780Z,1.53
2022-11-17T10:12:13.915Z,1.53
2022-11-17T10:14:41.468Z,1.73
2022-11-17T10:17:09.656Z,2.17
2022-11-17T10:19:40.397Z,1.90
2022-11-17T10:22:36.302Z,1.50
2022-11-17T10:25:03.859Z,1.43
2022-11-17T10:27:35.368Z,1.90
2022-11-17T10:30:20.312Z,1.63
2022-11-17T10:32:55.633Z,1.60
2022-11-17T10:35:28.285Z,1.40
2022-11-17T10:38:06.945Z,1.63
2022-11-17T10:40:55.146Z,1.50
2022-11-17T10:43:35.662Z,1.20
2022-11-17T10:46:07.717Z,1.60
2022-11-17T10:48:37.104Z,1.40
2022-11-17T10:51:25.400Z,1.60
2022-11-17T10:54:19.981Z,1.30
2022-11-17T10:56:53.548Z,1.50
2022-11-17T10:59:29.853Z,1.60
2022-11-17T11:01:57.824Z,1.77
2022-11-17T11:04:43.065Z,1.40
2022-11-17T11:07:21.699Z,1.63
2022-11-17T11:10:31.480Z,1.37
2022-11-17T11:13:34.466Z,1.47
2022-11-17T11:16:01.707Z,1.43
2022-11-17T11:18:31.226Z,1.70
2022-11-17T11:22:02.989Z,1.77
2022-11-17T11:24:45.298Z,1.40
2022-11-17T11:31:01.221Z,1.57
2022-11-17T11:33:37.173Z,1.47
2022-11-17T11:51:20.626Z,1.77
2022-11-17T11:54:02.296Z,1.40
2022-11-17T11:56:38.737Z,1.67
2022-11-17T12:00:02.447Z,1.27
2022-11-17T12:02:44.446Z,2.20
2022-11-17T12:05:49.118Z,1.57
2022-11-17T12:08:28.149Z,1.70
2022-11-17T12:11:26.679Z,2.30
2022-11-17T12:13:55.430Z,2.17
2022-11-17T12:16:35.160Z,1.50
2022-11-17T12:19:03.358Z,1.97
2022-11-17T12:21:31.110Z,2.07
2022-11-17T12:24:35.452Z,1.83
2022-11-17T12:27:53.794Z,1.83
2022-11-17T12:31:10.148Z,1.80
2022-11-17T12:34:31.845Z,1.80
2022-11-17T12:37:30.704Z,1.83
2022-11-17T12:40:09.788Z,2.20
2022-11-17T12:42:57.632Z,2.13
2022-11-17T12:45:25.267Z,1.40
2022-11-17T12:48:18.259Z,2.00
2022-11-17T12:50:52.641Z,1.70
2022-11-17T12:54:08.310Z,1.43
2022-11-17T12:57:07.093Z,1.47
2022-11-17T13:00:13.071Z,1.67
2022-11-17T13:03:11.654Z,1.73
2022-11-17T13:05:38.879Z,2.07
2022-11-17T13:08:22.158Z,1.57
2022-11-17T13:10:50.271Z,1.50
2022-11-17T13:13:25.114Z,1.63
2022-11-17T13:15:56.048Z,1.60
2022-11-17T13:18:42.450Z,1.30
2022-11-17T13:21:29.886Z,1.30
2022-11-17T13:23:59.170Z,1.40
2022-11-17T13:26:36.231Z,0.90
2022-11-17T13:29:05.952Z,1.10
2022-11-17T13:31:34.155Z,0.70
2022-11-17T13:34:04.243Z,0.77
2022-11-17T13:36:31.857Z,0.60
2022-11-17T13:39:02.408Z,0.70
2022-11-17T13:41:33.358Z,0.90
2022-11-17T13:44:01.567Z,0.83
2022-11-17T13:46:28.863Z,1.00
2022-11-17T13:48:56.321Z,0.60
2022-11-17T13:51:39.053Z,0.90
2022-11-17T13:54:17.980Z,0.37
2022-11-17T13:57:08.743Z,0.50
2022-11-17T13:59:39.079Z,0.57
2022-11-17T14:02:51.596Z,0.97
2022-11-17T14:05:23.193Z,0.67
2022-11-17T14:07:51.325Z,0.60
2022-11-17T14:10:37.694Z,0.70
2022-11-17T14:13:28.210Z,0.50
2022-11-17T14:16:00.104Z,0.87
2022-11-17T14:18:34.409Z,0.50
2022-11-17T14:21:16.664Z,0.70
2022-11-17T14:23:45.133Z,0.40
2022-11-17T14:26:21.723Z,0.43
2022-11-17T14:28:50.520Z,0.57
2022-11-17T14:31:18.368Z,0.40
2022-11-17T14:33:45.895Z,0.50
2022-11-17T14:36:17.421Z,0.40
2022-11-17T14:38:47.954Z,0.50
2022-11-17T14:41:17.276Z,0.50
2022-11-17T14:43:44.784Z,0.60
2022-11-17T14:46:24.431Z,0.80
2022-11-17T14:48:52.631Z,0.50
2022-11-17T14:51:21.420Z,0.90
2022-11-17T14:53:48.906Z,0.80
2022-11-17T14:56:18.904Z,0.70
2022-11-17T14:58:47.409Z,1.00
2022-11-17T15:01:20.497Z,1.03
2022-11-17T15:03:47.608Z,0.90
2022-11-17T15:06:19.467Z,1.00
2022-11-17T15:08:48.252Z,0.80
2022-11-17T15:11:17.937Z,0.93
2022-11-17T15:13:45.067Z,0.80
2022-11-17T15:16:12.835Z,1.00
2022-11-17T15:18:40.247Z,0.83
2022-11-17T15:21:08.894Z,0.80
2022-11-17T15:23:40.734Z,0.90
2022-11-17T15:26:18.923Z,0.90
2022-11-17T15:28:46.659Z,1.00
2022-11-17T15:31:15.309Z,1.00
2022-11-17T15:33:43.222Z,1.23
2022-11-17T15:36:11.586Z,0.80
2022-11-17T15:38:39.715Z,0.80
2022-11-17T15:41:08.116Z,0.87
2022-11-17T15:43:37.835Z,0.73
2022-11-17T15:46:09.735Z,0.80
2022-11-17T15:48:42.476Z,0.80
2022-11-17T15:51:13.792Z,1.00
2022-11-17T15:53:41.606Z,1.20
2022-11-17T15:56:19.546Z,0.93
2022-11-17T15:58:47.796Z,0.87
2022-11-17T16:01:16.565Z,0.80
2022-11-17T16:03:45.437Z,1.50
2022-11-17T16:06:13.291Z,1.57
2022-11-17T16:08:40.842Z,1.17
2022-11-17T16:11:08.614Z,0.93
2022-11-17T16:13:36.109Z,1.33
2022-11-17T16:16:04.008Z,1.13
2022-11-17T16:18:33.228Z,1.53
2022-11-17T16:21:05.053Z,1.30
2022-11-17T16:23:37.871Z,1.10
2022-11-17T16:26:05.464Z,1.00
2022-11-17T16:28:33.400Z,0.73
2022-11-17T16:31:00.920Z,1.13
2022-11-17T16:33:28.388Z,9.10
2022-11-17T16:35:55.805Z,1.60
2022-11-17T16:38:23.527Z,2.27
2022-11-17T16:40:50.997Z,1.90
2022-11-17T16:43:18.530Z,2.73
2022-11-17T16:45:46.273Z,2.70
2022-11-17T16:48:13.794Z,1.73
2022-11-17T16:50:42.351Z,2.30
2022-11-17T16:53:09.863Z,2.43
2022-11-17T16:55:37.426Z,1.83
2022-11-17T16:58:05.335Z,2.00
2022-11-17T17:00:33.350Z,1.43
2022-11-17T17:03:00.846Z,1.27
2022-11-17T17:05:31.551Z,1.40
2022-11-17T17:07:58.635Z,1.00
2022-11-17T17:10:25.677Z,1.30
2022-11-17T17:12:52.926Z,0.90
2022-11-17T17:15:20.055Z,0.90
2022-11-17T17:17:47.458Z,1.17
2022-11-17T17:20:14.762Z,0.73
2022-11-17T17:22:41.867Z,0.90
2022-11-17T17:25:09.563Z,0.90
2022-11-17T17:27:36.659Z,0.83
2022-11-17T17:30:05.108Z,0.70
2022-11-17T17:32:32.090Z,1.03
2022-11-17T17:34:59.165Z,0.63
2022-11-17T17:37:26.291Z,0.83
2022-11-17T17:39:53.314Z,0.70
2022-11-17T17:42:20.583Z,0.70
2022-11-17T17:44:47.682Z,0.80
2022-11-17T17:47:14.747Z,1.00
2022-11-17T17:49:41.874Z,0.60
2022-11-17T17:52:13.616Z,1.00
2022-11-17T17:54:41.254Z,0.90
2022-11-17T17:57:10.562Z,0.83
2022-11-17T17:59:37.610Z,1.00
2022-11-17T18:02:04.676Z,0.93
2022-11-17T18:04:31.791Z,0.83
2022-11-17T18:07:00.334Z,0.73
2022-11-17T18:09:27.752Z,1.07
2022-11-17T18:11:54.886Z,0.80
2022-11-17T18:14:24.345Z,0.70
2022-11-17T18:16:52.411Z,0.80
2022-11-17T18:19:20.018Z,0.60
2022-11-17T18:21:47.049Z,0.70
2022-11-17T18:24:14.175Z,0.60
2022-11-17T18:26:41.612Z,0.80
2022-11-17T18:29:13.491Z,0.60
2022-11-17T18:31:40.758Z,0.60
2022-11-17T18:34:14.026Z,0.60
2022-11-17T18:36:41.209Z,0.47
2022-11-17T18:39:09.192Z,0.50
2022-11-17T18:41:37.569Z,0.40
2022-11-17T18:44:05.191Z,0.70
2022-11-17T18:46:33.563Z,0.73
2022-11-17T18:49:01.108Z,0.93
2022-11-17T18:51:30.374Z,0.67
2022-11-17T18:53:59.347Z,1.00
2022-11-17T18:56:31.112Z,0.47
2022-11-17T18:58:58.231Z,0.67
2022-11-17T19:01:28.036Z,0.70
2022-11-17T19:03:57.438Z,0.50
2022-11-17T19:06:25.482Z,0.70
2022-11-17T19:08:53.111Z,0.53
2022-11-17T19:11:22.131Z,0.90
2022-11-17T19:13:49.448Z,0.60
2022-11-17T19:16:22.522Z,0.70
2022-11-17T19:18:52.913Z,0.73
2022-11-17T19:21:31.798Z,0.73
2022-11-17T19:24:04.535Z,0.50
2022-11-17T19:26:33.773Z,0.57
2022-11-17T19:29:03.329Z,0.50
2022-11-17T19:31:31.508Z,0.50
2022-11-17T19:33:58.939Z,0.33
2022-11-17T19:36:31.653Z,0.63
2022-11-17T19:39:00.739Z,0.60
2022-11-17T19:41:30.559Z,0.40
2022-11-17T19:43:59.602Z,0.40
2022-11-17T19:46:28.493Z,0.40
2022-11-17T19:48:56.896Z,0.90
2022-11-17T19:51:29.618Z,1.40
2022-11-17T19:54:02.649Z,0.70
2022-11-17T19:56:30.453Z,0.70
2022-11-17T19:58:57.620Z,0.50
2022-11-17T20:01:28.432Z,0.77
2022-11-17T20:03:56.962Z,0.70
2022-11-17T20:06:27.516Z,0.70
2022-11-17T20:08:56.175Z,0.50
2022-11-17T20:11:28.363Z,0.50
2022-11-17T20:13:56.081Z,0.97
2022-11-17T20:16:25.305Z,1.60
2022-11-17T20:18:57.667Z,0.70
2022-11-17T20:21:25.624Z,0.60
2022-11-17T20:23:53.222Z,0.70
2022-11-17T20:26:26.022Z,0.60
2022-11-17T20:28:53.276Z,1.00
2022-11-17T20:31:22.685Z,1.00
2022-11-17T20:33:50.230Z,1.10
2022-11-17T20:36:22.321Z,1.00
2022-11-17T20:38:57.996Z,0.73
2022-11-17T20:41:26.127Z,0.90
2022-11-17T20:43:55.074Z,0.80
2022-11-17T20:46:23.312Z,1.23
2022-11-17T20:48:51.110Z,0.90
2022-11-17T20:51:23.479Z,0.80
2022-11-17T20:53:50.933Z,0.80
2022-11-17T20:56:18.451Z,0.97
2022-11-17T20:58:48.531Z,1.00
2022-11-17T21:01:19.148Z,0.97
2022-11-17T21:03:46.900Z,0.90
2022-11-17T21:06:14.689Z,0.67
2022-11-17T21:08:43.488Z,0.70
2022-11-17T21:11:36.222Z,0.70
2022-11-17T21:14:05.650Z,0.50
2022-11-17T21:16:33.795Z,0.70
2022-11-17T21:19:01.058Z,0.63
2022-11-17T21:21:28.273Z,0.93
2022-11-17T21:23:55.950Z,0.80
2022-11-17T21:26:23.867Z,0.70
2022-11-17T21:28:51.929Z,0.70
2022-11-17T21:31:24.255Z,0.80
2022-11-17T21:33:58.113Z,0.60
2022-11-17T21:36:27.070Z,0.67
2022-11-17T21:38:56.029Z,0.60
2022-11-17T21:41:26.223Z,0.87
2022-11-17T21:43:54.672Z,0.90
2022-11-17T21:46:23.261Z,0.80
2022-11-17T21:48:51.924Z,0.90
2022-11-17T21:51:24.195Z,1.00
2022-11-17T21:53:56.044Z,0.70
2022-11-17T21:56:26.575Z,0.90
2022-11-17T21:58:58.295Z,0.83
2022-11-17T22:01:26.060Z,0.87
2022-11-17T22:03:53.363Z,0.87
2022-11-17T22:06:23.010Z,0.70
2022-11-17T22:08:50.627Z,0.73
2022-11-17T22:11:38.714Z,0.80
2022-11-17T22:14:14.167Z,0.90
2022-11-17T22:16:46.053Z,0.80
2022-11-17T22:19:15.399Z,1.07
2022-11-17T22:21:43.739Z,1.20
2022-11-17T22:24:12.501Z,0.90
2022-11-17T22:26:41.164Z,1.10
2022-11-17T22:29:21.070Z,1.00
2022-11-17T22:31:49.310Z,1.10
2022-11-17T22:34:17.540Z,1.20
2022-11-17T22:36:44.673Z,1.07
2022-11-17T22:39:11.844Z,0.80
2022-11-17T22:41:38.968Z,0.87
2022-11-17T22:44:06.643Z,1.00
2022-11-17T22:46:34.847Z,1.10
2022-11-17T22:49:01.952Z,0.90
2022-11-17T22:51:47.616Z,0.90
2022-11-17T22:54:14.768Z,0.87
2022-11-17T22:56:41.819Z,1.00
2022-11-17T22:59:09.246Z,1.50
2022-11-17T23:01:36.277Z,1.17
2022-11-17T23:04:03.520Z,0.70
2022-11-17T23:06:30.674Z,1.10
2022-11-17T23:09:00.589Z,0.97
2022-11-17T23:11:43.129Z,1.30
2022-11-17T23:14:13.393Z,1.00
2022-11-17T23:16:41.043Z,1.03
2022-11-17T23:19:11.209Z,1.30
2022-11-17T23:21:38.334Z,1.33
2022-11-17T23:24:05.849Z,1.60
2022-11-17T23:26:32.951Z,1.60
2022-11-17T23:29:00.274Z,1.60
2022-11-17T23:31:28.174Z,1.53
2022-11-17T23:33:55.241Z,1.30
2022-11-17T23:36:23.008Z,1.53
2022-11-17T23:38:51.329Z,1.17
2022-11-17T23:41:20.521Z,1.33
2022-11-17T23:43:51.344Z,1.10
2022-11-17T23:46:20.816Z,1.20
2022-11-17T23:48:48.074Z,1.60
2022-11-17T23:51:21.491Z,3.23
2022-11-17T23:53:49.639Z,2.23
2022-11-17T23:56:19.027Z,1.90
2022-11-17T23:58:46.629Z,1.20
